Time;durP1;ratioP1;P1;durP2;ratioP2;P2;SDS_P1;SDS_P2;PMS_P1;PMS_P2;Temp;Humidity;BMP_temperature;BMP_pressure;BME280_temperature;BME280_humidity;BME280_pressure;Samples;Min_cycle;Max_cycle;Signal;HPM_P1;HPM_P2
2022/10/17 00:00:23;;;;;;;11.80;9.15;;;14.00;99.90;;;;;;2103941;28;20110;-71
2022/10/17 00:01:24;;;;;;;10.98;9.43;;;13.90;99.90;;;;;;2105311;28;20062;-69
2022/10/17 00:02:25;;;;;;;10.95;9.10;;;13.90;99.90;;;;;;2107190;28;20101;-69
2022/10/17 00:03:25;;;;;;;9.93;8.93;;;13.90;99.90;;;;;;2104646;28;20032;-69
2022/10/17 00:04:26;;;;;;;10.25;9.15;;;13.90;99.90;;;;;;2104574;28;20074;-69
2022/10/17 00:05:27;;;;;;;11.27;9.00;;;13.90;99.90;;;;;;2113166;28;20035;-69
2022/10/17 00:06:28;;;;;;;11.30;9.55;;;13.90;99.90;;;;;;2113086;28;20119;-69
2022/10/17 00:07:29;;;;;;;9.75;8.75;;;13.90;99.90;;;;;;2113256;28;20497;-69
2022/10/17 00:08:30;;;;;;;10.50;9.30;;;13.90;99.90;;;;;;2115186;28;20063;-69
2022/10/17 00:09:31;;;;;;;10.80;9.13;;;13.90;99.90;;;;;;2115023;28;20020;-68
2022/10/17 00:10:31;;;;;;;12.63;9.07;;;13.90;99.90;;;;;;2114785;28;20054;-68
2022/10/17 00:11:32;;;;;;;10.50;8.95;;;13.80;99.90;;;;;;2115173;28;20023;-68
2022/10/17 00:12:33;;;;;;;9.52;8.63;;;13.80;99.90;;;;;;2115186;28;20031;-68
2022/10/17 00:13:35;;;;;;;9.50;8.18;;;13.80;99.90;;;;;;2114891;28;20036;-68
2022/10/17 00:14:36;;;;;;;9.95;8.13;;;13.80;99.90;;;;;;2114611;28;20060;-68
2022/10/17 00:15:37;;;;;;;9.73;8.73;;;13.80;99.90;;;;;;2114695;28;20032;-68
2022/10/17 00:16:38;;;;;;;9.57;8.57;;;13.70;99.90;;;;;;2114543;28;20016;-68
2022/10/17 00:17:39;;;;;;;9.38;8.38;;;13.70;99.90;;;;;;2106082;28;20092;-68
2022/10/17 00:18:39;;;;;;;9.20;8.30;;;13.70;99.90;;;;;;2114636;28;20039;-68
2022/10/17 00:19:40;;;;;;;9.27;8.07;;;13.70;99.90;;;;;;2114241;28;20059;-69
2022/10/17 00:20:41;;;;;;;9.50;8.20;;;13.70;99.90;;;;;;2114174;28;20019;-68
2022/10/17 00:21:42;;;;;;;9.30;8.40;;;13.70;99.90;;;;;;2115116;28;20031;-69
2022/10/17 00:22:43;;;;;;;9.13;8.23;;;13.70;99.90;;;;;;2115103;28;20110;-70
2022/10/17 00:23:45;;;;;;;9.13;8.05;;;13.60;99.90;;;;;;2115090;27;20136;-68
2022/10/17 00:24:45;;;;;;;8.85;7.95;;;13.70;99.90;;;;;;2114988;28;20374;-68
2022/10/17 00:25:46;;;;;;;9.20;8.25;;;13.60;99.90;;;;;;2114788;28;20030;-68
2022/10/17 00:26:47;;;;;;;9.30;8.40;;;13.70;99.90;;;;;;2115086;28;20031;-70
2022/10/17 00:27:47;;;;;;;9.70;7.85;;;13.60;99.90;;;;;;2114928;28;20430;-69
2022/10/17 00:28:51;;;;;;;8.98;8.07;;;13.60;99.90;;;;;;2114115;28;20030;-69
2022/10/17 00:29:51;;;;;;;10.05;8.30;;;13.60;99.90;;;;;;2114134;28;20099;-70
2022/10/17 00:31:00;;;;;;;9.45;8.43;;;13.50;99.90;;;;;;2113947;28;20038;-69
2022/10/17 00:32:01;;;;;;;9.82;8.25;;;13.50;99.90;;;;;;2114430;28;20036;-70
2022/10/17 00:33:01;;;;;;;9.30;8.25;;;13.50;99.90;;;;;;2115078;28;20024;-69
2022/10/17 00:34:02;;;;;;;9.13;8.20;;;13.50;99.90;;;;;;2114835;28;20038;-70
2022/10/17 00:35:03;;;;;;;9.82;8.15;;;13.50;99.90;;;;;;2114195;28;20028;-70
2022/10/17 00:36:09;;;;;;;9.43;7.80;;;13.50;99.90;;;;;;2114372;28;20176;-69
2022/10/17 00:37:10;;;;;;;8.80;7.90;;;13.50;99.90;;;;;;2114346;28;20038;-70
2022/10/17 00:38:10;;;;;;;8.63;7.72;;;13.50;99.90;;;;;;2114275;28;20115;-69
2022/10/17 00:39:11;;;;;;;9.50;8.27;;;13.50;99.90;;;;;;2114998;28;20050;-70
2022/10/17 00:40:12;;;;;;;8.95;8.00;;;13.50;99.90;;;;;;2114034;28;20102;-70
2022/10/17 00:41:17;;;;;;;8.90;8.00;;;13.40;99.90;;;;;;2114596;28;20031;-70
2022/10/17 00:42:18;;;;;;;9.43;7.60;;;13.40;99.90;;;;;;2114273;28;20035;-70
2022/10/17 00:43:22;;;;;;;9.18;7.85;;;13.40;99.90;;;;;;2105654;28;20116;-70
2022/10/17 00:44:29;;;;;;;9.00;8.02;;;13.40;99.90;;;;;;2114295;28;20023;-69
2022/10/17 00:45:30;;;;;;;8.68;7.88;;;13.50;99.90;;;;;;2114826;28;20024;-70
2022/10/17 00:46:37;;;;;;;8.40;7.60;;;13.40;99.90;;;;;;2114995;28;20020;-70
2022/10/17 00:47:39;;;;;;;9.82;8.07;;;13.40;99.90;;;;;;2113847;28;20012;-69
2022/10/17 00:48:40;;;;;;;9.18;7.72;;;13.40;99.90;;;;;;2114217;28;20027;-69
2022/10/17 00:49:41;;;;;;;9.35;7.85;;;13.40;99.90;;;;;;2105746;28;20028;-70
2022/10/17 00:50:44;;;;;;;9.02;8.00;;;13.40;99.90;;;;;;2105546;28;20515;-70
2022/10/17 00:52:08;;;;;;;8.35;7.55;;;13.40;99.90;;;;;;2111331;28;20031;-69
2022/10/17 00:53:10;;;;;;;8.70;7.82;;;13.40;99.90;;;;;;2105763;28;20106;-69
2022/10/17 00:54:13;;;;;;;9.82;8.05;;;13.30;99.90;;;;;;2112192;28;20436;-69
2022/10/17 00:55:20;;;;;;;9.10;8.07;;;13.40;99.90;;;;;;2114085;28;20036;-69
2022/10/17 00:56:20;;;;;;;8.85;7.90;;;13.30;99.90;;;;;;2114234;28;20046;-70
2022/10/17 00:57:21;;;;;;;9.55;8.00;;;13.40;99.90;;;;;;2113983;28;20534;-70
2022/10/17 00:58:23;;;;;;;9.07;8.07;;;13.30;99.90;;;;;;2114010;28;20047;-69
2022/10/17 00:59:25;;;;;;;9.57;7.72;;;13.30;99.90;;;;;;2114667;28;20527;-69
2022/10/17 01:00:26;;;;;;;8.45;7.65;;;13.30;99.90;;;;;;2113819;28;20031;-69
2022/10/17 01:01:27;;;;;;;8.45;7.65;;;13.30;99.90;;;;;;2105393;28;20020;-69
2022/10/17 01:02:27;;;;;;;8.57;7.68;;;13.30;99.90;;;;;;2114295;28;20076;-70
2022/10/17 01:03:28;;;;;;;8.35;7.55;;;13.30;99.90;;;;;;2114035;28;20020;-70
2022/10/17 01:04:29;;;;;;;8.95;7.75;;;13.20;99.90;;;;;;2114141;28;20782;-70
2022/10/17 01:05:30;;;;;;;9.57;7.68;;;13.30;99.90;;;;;;2114315;28;20696;-70
2022/10/17 01:06:30;;;;;;;9.15;7.63;;;13.20;99.90;;;;;;2114153;28;20049;-70
2022/10/17 01:07:32;;;;;;;8.38;7.53;;;13.20;99.90;;;;;;2114781;28;20102;-70
2022/10/17 01:08:32;;;;;;;8.35;7.55;;;13.20;99.90;;;;;;2115087;27;20389;-69
2022/10/17 01:09:33;;;;;;;10.73;7.55;;;13.20;99.90;;;;;;2113783;28;20054;-70
2022/10/17 01:10:54;;;;;;;8.00;7.20;;;13.20;99.90;;;;;;2113867;28;20034;-70
2022/10/17 01:11:58;;;;;;;;;;;13.20;99.90;;;;;;2109011;28;20043;-70
2022/10/17 01:13:03;;;;;;;7.93;6.70;;;13.20;99.90;;;;;;2114248;28;19915;-70
2022/10/17 01:14:35;;;;;;;8.15;7.20;;;13.20;99.90;;;;;;2114844;28;20024;-69
2022/10/17 01:15:59;;;;;;;8.20;7.15;;;13.10;99.90;;;;;;2106028;28;20035;-70
2022/10/17 01:17:18;;;;;;;7.65;6.85;;;13.10;99.90;;;;;;2109328;28;20108;-69
2022/10/17 01:18:45;;;;;;;8.60;6.97;;;13.10;99.90;;;;;;2113788;28;20457;-70
2022/10/17 01:20:22;;;;;;;8.02;7.22;;;13.10;99.90;;;;;;2114260;28;20062;-69
2022/10/17 01:21:28;;;;;;;8.25;7.32;;;13.10;99.90;;;;;;2112779;28;20031;-70
2022/10/17 01:22:55;;;;;;;8.30;7.35;;;13.10;99.90;;;;;;2115225;28;20027;-69
2022/10/17 01:24:14;;;;;;;10.90;7.85;;;13.10;99.90;;;;;;2114655;28;20050;-70
2022/10/17 01:25:47;;;;;;;8.63;7.60;;;13.00;99.90;;;;;;2114824;28;20034;-69
2022/10/17 01:27:22;;;;;;;8.43;7.60;;;13.00;99.90;;;;;;2111908;28;20593;-69
2022/10/17 01:28:57;;;;;;;8.60;7.70;;;13.00;99.90;;;;;;2103162;28;20105;-69
2022/10/17 01:30:41;;;;;;;8.93;7.93;;;13.00;99.90;;;;;;2107491;28;20462;-69
2022/10/17 01:31:57;;;;;;;8.65;7.65;;;13.00;99.90;;;;;;2112212;28;20031;-69
2022/10/17 01:33:07;;;;;;;10.98;7.45;;;13.00;99.90;;;;;;2115224;28;20012;-69
2022/10/17 01:34:20;;;;;;;8.25;7.47;;;13.00;99.90;;;;;;2115017;28;20081;-69
2022/10/17 01:35:47;;;;;;;8.95;7.78;;;13.00;99.90;;;;;;2108461;28;20366;-71
2022/10/17 01:36:58;;;;;;;8.88;7.30;;;12.90;99.90;;;;;;2115346;28;20031;-69
2022/10/17 01:38:06;;;;;;;;;;;12.90;99.90;;;;;;2115950;27;20034;-70
2022/10/17 01:39:34;;;;;;;9.27;7.72;;;12.90;99.90;;;;;;2114102;28;19908;-69
2022/10/17 01:41:01;;;;;;;8.73;7.78;;;12.90;99.90;;;;;;2110029;28;20124;-70
2022/10/17 01:42:16;;;;;;;8.82;7.90;;;12.90;99.90;;;;;;2092854;28;20398;-70
2022/10/17 01:43:51;;;;;;;9.07;8.02;;;12.90;99.90;;;;;;2107922;28;20568;-70
2022/10/17 01:45:08;;;;;;;10.20;8.50;;;12.90;99.90;;;;;;2102626;28;20024;-71
2022/10/17 01:46:16;;;;;;;8.10;7.30;;;12.90;99.90;;;;;;2102396;28;20028;-70
2022/10/17 01:47:20;;;;;;;9.00;8.10;;;12.90;99.90;;;;;;2107047;28;20513;-70
2022/10/17 01:48:24;;;;;;;9.73;7.57;;;12.90;99.90;;;;;;2098786;28;20072;-70
2022/10/17 01:49:28;;;;;;;9.10;7.70;;;12.90;99.90;;;;;;2113643;28;20102;-70
2022/10/17 01:50:36;;;;;;;9.27;8.05;;;12.90;99.90;;;;;;2105767;28;20539;-70
2022/10/17 01:51:46;;;;;;;9.13;7.70;;;12.80;99.90;;;;;;2098004;28;20063;-69
2022/10/17 01:52:51;;;;;;;8.85;7.95;;;12.80;99.90;;;;;;2099681;28;20666;-70
2022/10/17 01:53:59;;;;;;;8.75;7.85;;;12.80;99.90;;;;;;2113957;28;20118;-70
2022/10/17 01:55:07;;;;;;;8.85;7.95;;;12.80;99.90;;;;;;2114272;28;20110;-70
2022/10/17 01:56:10;;;;;;;10.10;7.90;;;12.80;99.90;;;;;;2114597;27;20106;-69
2022/10/17 01:57:21;;;;;;;9.25;8.02;;;12.80;99.90;;;;;;2113556;28;20031;-70
2022/10/17 01:58:29;;;;;;;8.98;8.05;;;12.80;99.90;;;;;;2106315;28;20108;-71
2022/10/17 01:59:37;;;;;;;8.82;7.88;;;12.80;99.90;;;;;;2106132;28;20048;-69
2022/10/17 02:00:41;;;;;;;8.52;7.70;;;12.70;99.90;;;;;;2105666;28;20028;-69
2022/10/17 02:01:44;;;;;;;9.40;7.82;;;12.70;99.90;;;;;;2105475;28;20035;-70
2022/10/17 02:02:47;;;;;;;9.57;7.90;;;12.70;99.90;;;;;;2105324;28;20052;-69
2022/10/17 02:03:51;;;;;;;13.00;8.07;;;12.70;99.90;;;;;;2097212;28;20021;-69
2022/10/17 02:04:58;;;;;;;9.85;8.30;;;12.70;99.90;;;;;;2105465;28;20111;-69
2022/10/17 02:06:03;;;;;;;9.88;8.10;;;12.70;99.90;;;;;;2114625;28;20059;-70
2022/10/17 02:07:11;;;;;;;9.27;8.35;;;12.70;99.90;;;;;;2114215;28;20030;-69
2022/10/17 02:08:13;;;;;;;10.10;7.93;;;12.70;99.90;;;;;;2114149;28;20031;-70
2022/10/17 02:09:25;;;;;;;9.90;8.23;;;12.70;99.90;;;;;;2113324;28;20024;-70
2022/10/17 02:10:38;;;;;;;9.88;8.57;;;12.70;99.90;;;;;;2106198;28;20070;-70
2022/10/17 02:11:49;;;;;;;11.75;8.90;;;12.70;99.90;;;;;;2106862;28;20103;-70
2022/10/17 02:13:08;;;;;;;10.77;8.55;;;12.70;99.90;;;;;;2106194;28;20527;-70
2022/10/17 02:14:45;;;;;;;12.60;10.30;;;12.70;99.90;;;;;;2107435;28;20032;-70
2022/10/17 02:16:22;;;;;;;12.57;10.57;;;12.70;99.90;;;;;;2114151;28;20486;-69
2022/10/17 02:17:45;;;;;;;14.35;11.52;;;12.80;99.90;;;;;;2113733;28;20019;-70
2022/10/17 02:19:03;;;;;;;16.65;12.13;;;12.80;99.90;;;;;;2113550;28;20596;-70
2022/10/17 02:20:21;;;;;;;15.43;12.70;;;12.80;99.90;;;;;;2113458;28;20031;-70
2022/10/17 02:21:52;;;;;;;19.15;14.32;;;12.90;99.90;;;;;;2113838;28;20046;-70
2022/10/17 02:22:53;;;;;;;;;;;12.90;99.90;;;;;;2110053;28;20036;-70
2022/10/17 02:24:16;;;;;;;16.50;12.93;;;12.90;99.90;;;;;;2113594;28;19939;-70
2022/10/17 02:25:35;;;;;;;18.75;14.30;;;12.90;99.90;;;;;;2113708;28;20036;-70
2022/10/17 02:26:48;;;;;;;18.88;14.32;;;12.90;99.90;;;;;;2105307;28;20078;-70
2022/10/17 02:27:57;;;;;;;19.65;14.90;;;12.90;99.90;;;;;;2100343;28;20032;-69
2022/10/17 02:29:15;;;;;;;19.95;14.90;;;12.90;99.90;;;;;;2106493;28;20189;-70
2022/10/17 02:30:46;;;;;;;21.40;15.55;;;12.90;99.90;;;;;;2107239;28;20118;-70
2022/10/17 02:31:59;;;;;;;20.63;16.20;;;12.90;99.90;;;;;;2114616;28;20574;-70
2022/10/17 02:33:17;;;;;;;21.70;15.77;;;12.90;99.90;;;;;;2114560;28;20087;-70
2022/10/17 02:34:29;;;;;;;22.05;16.33;;;12.90;99.90;;;;;;2114494;28;20043;-69
2022/10/17 02:35:37;;;;;;;23.25;17.08;;;12.90;99.90;;;;;;2114675;28;20039;-70
2022/10/17 02:36:42;;;;;;;25.35;18.42;;;13.00;99.90;;;;;;2114569;28;20335;-68
2022/10/17 02:37:46;;;;;;;25.35;18.45;;;13.00;99.90;;;;;;2114443;28;20024;-71
2022/10/17 02:38:49;;;;;;;34.28;23.23;;;13.00;99.90;;;;;;2106294;28;20020;-71
2022/10/17 02:39:52;;;;;;;34.13;23.20;;;13.00;99.90;;;;;;2113411;28;20026;-70
2022/10/17 02:40:54;;;;;;;34.30;23.40;;;13.00;99.90;;;;;;2114226;28;20016;-70
2022/10/17 02:41:59;;;;;;;33.95;24.30;;;13.10;99.90;;;;;;2113453;28;20069;-70
2022/10/17 02:43:02;;;;;;;36.95;25.52;;;13.10;99.90;;;;;;2113178;28;20134;-70
2022/10/17 02:44:05;;;;;;;37.58;25.50;;;13.10;99.90;;;;;;2107771;28;20409;-69
2022/10/17 02:45:07;;;;;;;40.05;26.70;;;13.10;99.90;;;;;;2110091;28;20101;-69
2022/10/17 02:46:19;;;;;;;38.42;25.77;;;13.20;99.90;;;;;;2099149;28;20115;-70
2022/10/17 02:47:26;;;;;;;34.78;24.70;;;13.20;99.90;;;;;;2100237;28;20157;-69
2022/10/17 02:48:40;;;;;;;32.13;22.88;;;13.20;99.90;;;;;;2104792;28;20120;-71
2022/10/17 02:49:46;;;;;;;33.47;23.95;;;13.20;99.90;;;;;;2106621;28;20504;-69
2022/10/17 02:51:03;;;;;;;33.95;24.17;;;13.20;99.90;;;;;;2104702;28;20031;-69
2022/10/17 02:52:19;;;;;;;37.53;26.08;;;13.20;99.90;;;;;;2098726;28;20032;-70
2022/10/17 02:53:37;;;;;;;38.30;25.75;;;13.20;99.90;;;;;;2098334;28;20024;-70
2022/10/17 02:54:41;;;;;;;37.75;26.15;;;13.20;99.90;;;;;;2098825;28;20182;-69
2022/10/17 02:55:51;;;;;;;35.45;25.48;;;13.20;99.90;;;;;;2104934;28;20032;-69
2022/10/17 02:57:01;;;;;;;36.85;25.83;;;13.20;99.90;;;;;;2104743;28;20031;-69
2022/10/17 02:58:15;;;;;;;40.40;27.90;;;13.20;99.90;;;;;;2105089;28;20070;-70
2022/10/17 02:59:21;;;;;;;42.67;28.77;;;13.20;99.90;;;;;;2104568;28;20038;-69
2022/10/17 03:00:23;;;;;;;47.55;32.03;;;13.20;99.90;;;;;;2096306;28;20036;-69
2022/10/17 03:01:25;;;;;;;47.53;31.02;;;13.30;99.90;;;;;;2104666;28;20024;-69
2022/10/17 03:02:27;;;;;;;49.97;33.10;;;13.30;99.90;;;;;;2104619;28;20055;-69
2022/10/17 03:03:31;;;;;;;50.15;33.05;;;13.30;99.90;;;;;;2087910;28;20017;-69
2022/10/17 03:04:36;;;;;;;44.58;30.95;;;13.30;99.90;;;;;;2089780;28;20032;-70
2022/10/17 03:05:36;;;;;;;47.80;32.53;;;13.30;99.90;;;;;;2104698;28;20123;-70
2022/10/17 03:06:40;;;;;;;49.53;32.92;;;13.30;99.90;;;;;;2105424;28;20035;-69
2022/10/17 03:07:41;;;;;;;48.40;32.25;;;13.30;99.90;;;;;;2104700;28;20091;-70
2022/10/17 03:08:42;;;;;;;54.75;35.42;;;13.30;99.90;;;;;;2096429;28;20025;-69
2022/10/17 03:09:43;;;;;;;53.13;34.13;;;13.30;99.90;;;;;;2104582;28;20031;-68
2022/10/17 03:10:43;;;;;;;52.00;34.38;;;13.30;99.90;;;;;;2104051;28;20611;-69
2022/10/17 03:11:44;;;;;;;53.47;35.50;;;13.30;99.90;;;;;;2104589;28;20077;-68
2022/10/17 03:12:45;;;;;;;60.38;38.83;;;13.30;99.90;;;;;;2104586;28;20398;-68
2022/10/17 03:13:46;;;;;;;61.45;39.05;;;13.40;99.90;;;;;;2104602;28;20535;-69
2022/10/17 03:14:47;;;;;;;57.60;37.60;;;13.40;99.90;;;;;;2104423;28;20028;-68
2022/10/17 03:15:47;;;;;;;69.57;43.17;;;13.40;99.90;;;;;;2104573;28;20598;-68
2022/10/17 03:16:48;;;;;;;67.03;42.13;;;13.40;99.90;;;;;;2112982;28;20028;-69
2022/10/17 03:17:51;;;;;;;73.32;45.00;;;13.40;99.90;;;;;;2104597;28;20024;-70
2022/10/17 03:18:52;;;;;;;67.10;42.08;;;13.50;99.90;;;;;;2096332;28;20032;-69
2022/10/17 03:19:53;;;;;;;62.42;40.80;;;13.40;99.90;;;;;;2095875;28;20032;-69
2022/10/17 03:20:54;;;;;;;72.03;44.83;;;13.50;99.90;;;;;;2095955;28;20533;-69
2022/10/17 03:21:55;;;;;;;68.57;42.35;;;13.50;99.90;;;;;;2104622;28;20027;-69
2022/10/17 03:22:56;;;;;;;63.50;40.67;;;13.50;99.90;;;;;;2104518;28;20520;-69
2022/10/17 03:23:56;;;;;;;62.88;39.45;;;13.50;99.90;;;;;;2104478;28;20032;-71
2022/10/17 03:24:58;;;;;;;64.63;40.58;;;13.50;99.90;;;;;;2104408;28;20077;-69
2022/10/17 03:26:03;;;;;;;64.80;41.50;;;13.50;99.90;;;;;;2104235;28;20024;-70
2022/10/17 03:27:04;;;;;;;60.65;40.15;;;13.50;99.90;;;;;;2104383;28;20032;-69
2022/10/17 03:28:05;;;;;;;63.47;40.90;;;13.50;99.90;;;;;;2104465;28;20028;-69
2022/10/17 03:29:05;;;;;;;62.20;38.95;;;13.50;99.90;;;;;;2104228;28;20081;-70
2022/10/17 03:30:08;;;;;;;54.20;36.72;;;13.50;99.90;;;;;;2104143;28;20533;-69
2022/10/17 03:31:14;;;;;;;52.95;35.88;;;13.50;99.90;;;;;;2104160;28;20020;-70
2022/10/17 03:32:15;;;;;;;51.97;34.40;;;13.40;99.90;;;;;;2096430;28;20086;-69
2022/10/17 03:33:15;;;;;;;55.55;36.55;;;13.40;99.90;;;;;;2104507;28;20028;-68
2022/10/17 03:34:17;;;;;;;54.88;36.15;;;13.40;99.90;;;;;;2104539;28;20032;-68
2022/10/17 03:35:18;;;;;;;55.20;36.83;;;13.40;99.90;;;;;;2104407;28;20020;-68
2022/10/17 03:36:22;;;;;;;58.42;37.47;;;13.40;99.90;;;;;;2104337;28;20020;-70
2022/10/17 03:37:23;;;;;;;55.85;35.58;;;13.40;99.90;;;;;;2096250;28;20115;-69
2022/10/17 03:38:24;;;;;;;68.75;43.67;;;13.40;99.90;;;;;;2104308;28;20028;-70
2022/10/17 03:39:26;;;;;;;68.35;42.95;;;13.40;99.90;;;;;;2104460;28;20031;-70
2022/10/17 03:40:27;;;;;;;66.55;41.70;;;13.50;99.90;;;;;;2102993;28;20043;-70
2022/10/17 03:41:28;;;;;;;61.92;40.22;;;13.50;99.90;;;;;;2096142;28;20063;-70
2022/10/17 03:42:30;;;;;;;64.72;40.63;;;13.50;99.90;;;;;;2097573;28;20471;-69
2022/10/17 03:43:35;;;;;;;58.53;38.45;;;13.40;99.90;;;;;;2097877;28;20536;-69
2022/10/17 03:44:35;;;;;;;65.55;42.55;;;13.50;99.90;;;;;;2106059;28;20103;-68
2022/10/17 03:45:36;;;;;;;63.10;40.10;;;13.50;99.90;;;;;;2097635;28;20487;-69
2022/10/17 03:46:37;;;;;;;66.57;40.88;;;13.50;99.90;;;;;;2102071;28;20020;-68
2022/10/17 03:47:38;;;;;;;63.50;41.38;;;13.50;99.90;;;;;;2105718;28;20024;-68
2022/10/17 03:48:38;;;;;;;72.10;44.15;;;13.50;99.90;;;;;;2114533;28;20032;-71
2022/10/17 03:49:40;;;;;;;68.15;42.95;;;13.50;99.90;;;;;;2114310;28;20469;-68
2022/10/17 03:50:41;;;;;;;70.38;43.30;;;13.50;99.90;;;;;;2105514;28;20039;-69
2022/10/17 03:51:42;;;;;;;61.80;39.63;;;13.50;99.90;;;;;;2106047;28;20024;-69
2022/10/17 03:52:47;;;;;;;59.88;39.50;;;13.50;99.90;;;;;;2106452;28;20028;-68
2022/10/17 03:53:48;;;;;;;59.35;38.75;;;13.50;99.90;;;;;;2106084;28;20390;-69
2022/10/17 03:54:50;;;;;;;62.63;40.03;;;13.50;99.90;;;;;;2097606;28;20042;-70
2022/10/17 03:55:51;;;;;;;63.08;40.22;;;13.50;99.90;;;;;;2098064;28;20025;-69
2022/10/17 03:56:52;;;;;;;59.65;38.45;;;13.50;99.90;;;;;;2105889;28;20031;-71
2022/10/17 03:57:54;;;;;;;68.78;43.08;;;13.50;99.90;;;;;;2097829;28;20109;-70
2022/10/17 03:58:56;;;;;;;73.18;44.75;;;13.50;99.90;;;;;;2098109;28;20052;-70
2022/10/17 03:59:57;;;;;;;66.38;42.58;;;13.50;99.90;;;;;;2097816;28;20121;-71
2022/10/17 04:01:04;;;;;;;61.72;39.92;;;13.50;99.90;;;;;;2114299;28;20801;-71
2022/10/17 04:02:04;;;;;;;66.82;42.13;;;13.50;99.90;;;;;;2114500;28;20042;-69
2022/10/17 04:03:05;;;;;;;63.40;40.55;;;13.50;99.90;;;;;;2114428;28;20027;-71
2022/10/17 04:04:06;;;;;;;60.50;38.75;;;13.50;99.90;;;;;;2105804;28;20036;-71
2022/10/17 04:05:09;;;;;;;62.70;40.40;;;13.50;99.90;;;;;;2106239;28;20024;-70
2022/10/17 04:06:12;;;;;;;55.97;36.55;;;13.50;99.90;;;;;;2106163;28;20490;-70
2022/10/17 04:07:15;;;;;;;65.18;37.00;;;13.50;99.90;;;;;;2106807;28;20028;-70
2022/10/17 04:08:18;;;;;;;67.93;38.03;;;13.50;99.90;;;;;;2114534;28;20035;-70
2022/10/17 04:09:38;;;;;;;69.38;38.17;;;13.50;99.90;;;;;;2108692;28;20031;-71
2022/10/17 04:10:42;;;;;;;63.45;37.38;;;13.50;99.90;;;;;;2108565;28;20027;-71
2022/10/17 04:11:43;;;;;;;60.17;35.90;;;13.50;99.90;;;;;;2105848;28;20028;-70
2022/10/17 04:12:44;;;;;;;57.13;35.88;;;13.60;99.90;;;;;;2105808;28;20035;-71
2022/10/17 04:13:46;;;;;;;65.13;38.95;;;13.50;99.90;;;;;;2105579;28;20032;-71
2022/10/17 04:14:47;;;;;;;57.05;37.85;;;13.60;99.90;;;;;;2114547;28;20023;-71
2022/10/17 04:16:02;;;;;;;60.60;39.08;;;13.60;99.90;;;;;;2114344;28;20633;-70
2022/10/17 04:17:03;;;;;;;65.43;41.05;;;13.50;99.90;;;;;;2114213;28;20027;-71
2022/10/17 04:18:05;;;;;;;68.68;43.60;;;13.50;99.90;;;;;;2105873;28;20108;-71
2022/10/17 04:19:06;;;;;;;64.82;40.28;;;13.50;99.90;;;;;;2105645;28;20032;-70
2022/10/17 04:20:13;;;;;;;68.80;41.17;;;13.50;99.90;;;;;;2106202;28;20024;-70
2022/10/17 04:21:14;;;;;;;59.15;40.13;;;13.50;99.90;;;;;;2113989;28;20031;-70
2022/10/17 04:22:15;;;;;;;57.08;38.45;;;13.50;99.90;;;;;;2114256;28;20547;-71
2022/10/17 04:23:15;;;;;;;55.35;37.08;;;13.50;99.90;;;;;;2114272;28;20054;-70
2022/10/17 04:24:16;;;;;;;58.70;39.53;;;13.50;99.90;;;;;;2114350;28;20024;-69
2022/10/17 04:25:37;;;;;;;67.75;42.95;;;13.50;99.90;;;;;;2114189;28;20043;-69
2022/10/17 04:26:38;;;;;;;66.85;42.08;;;13.50;99.90;;;;;;2114673;28;20042;-70
2022/10/17 04:27:39;;;;;;;63.88;41.95;;;13.50;99.90;;;;;;2097228;28;20568;-70
2022/10/17 04:28:40;;;;;;;64.47;42.00;;;13.50;99.90;;;;;;2105829;28;20031;-72
2022/10/17 04:29:41;;;;;;;72.43;44.70;;;13.50;99.90;;;;;;2105683;28;20020;-69
2022/10/17 04:31:05;;;;;;;81.95;47.95;;;13.50;99.90;;;;;;2099682;28;20433;-69
2022/10/17 04:32:11;;;;;;;71.20;44.83;;;13.50;99.90;;;;;;2101708;28;20032;-70
2022/10/17 04:33:16;;;;;;;73.05;46.25;;;13.50;99.90;;;;;;2099263;28;20115;-69
2022/10/17 04:34:18;;;;;;;68.47;43.47;;;13.50;99.90;;;;;;2097320;28;20032;-69
2022/10/17 04:35:18;;;;;;;65.75;42.78;;;13.50;99.90;;;;;;2105952;28;20662;-69
2022/10/17 04:36:24;;;;;;;63.70;40.97;;;13.50;99.90;;;;;;2114010;28;20082;-69
2022/10/17 04:37:25;;;;;;;60.78;40.53;;;13.40;99.90;;;;;;2097186;28;20517;-69
2022/10/17 04:38:28;;;;;;;61.92;40.25;;;13.40;99.90;;;;;;2097687;28;20039;-69
2022/10/17 04:39:29;;;;;;;61.40;40.28;;;13.40;99.90;;;;;;2105371;28;20028;-70
2022/10/17 04:40:32;;;;;;;60.67;38.80;;;13.40;99.90;;;;;;2105336;28;20116;-69
2022/10/17 04:41:33;;;;;;;55.88;37.25;;;13.40;99.90;;;;;;2089424;28;20039;-70
2022/10/17 04:42:36;;;;;;;61.85;39.85;;;13.40;99.90;;;;;;2097739;28;20020;-69
2022/10/17 04:43:38;;;;;;;53.25;36.83;;;13.40;99.90;;;;;;2114095;28;20629;-71
2022/10/17 04:44:39;;;;;;;59.50;39.42;;;13.40;99.90;;;;;;2105573;28;20174;-72
2022/10/17 04:45:40;;;;;;;62.35;41.22;;;13.40;99.90;;;;;;2105720;28;20028;-72
2022/10/17 04:46:41;;;;;;;63.10;40.72;;;13.30;99.90;;;;;;2105789;28;20554;-72
2022/10/17 04:47:41;;;;;;;61.50;41.10;;;13.40;99.90;;;;;;2113795;28;20016;-72
2022/10/17 04:48:42;;;;;;;60.70;39.53;;;13.40;99.90;;;;;;2105497;28;20405;-72
2022/10/17 04:49:44;;;;;;;61.25;38.78;;;13.40;99.90;;;;;;2097421;28;20060;-73
2022/10/17 04:50:56;;;;;;;59.83;39.80;;;13.40;99.90;;;;;;2088667;28;20740;-73
2022/10/17 04:52:07;;;;;;;64.20;40.67;;;13.30;99.90;;;;;;2094958;28;20407;-73
2022/10/17 04:53:16;;;;;;;65.30;41.45;;;13.30;99.90;;;;;;2097585;28;20529;-72
2022/10/17 04:54:18;;;;;;;65.82;43.35;;;13.40;99.90;;;;;;2096360;28;20109;-72
2022/10/17 04:55:22;;;;;;;64.53;42.13;;;13.40;99.90;;;;;;2097294;28;20561;-73
2022/10/17 04:56:23;;;;;;;80.72;49.42;;;13.40;99.90;;;;;;2097207;28;20028;-72
2022/10/17 04:57:24;;;;;;;71.80;45.45;;;13.40;99.90;;;;;;2097555;28;20497;-72
2022/10/17 04:58:39;;;;;;;71.00;45.10;;;13.30;99.90;;;;;;2099459;28;20114;-73
2022/10/17 04:59:40;;;;;;;87.78;52.90;;;13.40;99.90;;;;;;2097366;28;20043;-72
2022/10/17 05:00:56;;;;;;;77.57;48.38;;;13.40;99.90;;;;;;2099272;28;20028;-71
2022/10/17 05:02:01;;;;;;;78.72;48.95;;;13.40;99.90;;;;;;2098160;28;20063;-72
2022/10/17 05:03:03;;;;;;;76.50;48.65;;;13.40;99.90;;;;;;2097954;28;20027;-72
2022/10/17 05:04:04;;;;;;;77.10;49.17;;;13.40;99.90;;;;;;2105834;28;20623;-72
2022/10/17 05:05:05;;;;;;;86.95;53.15;;;13.40;99.90;;;;;;2105511;28;20604;-74
2022/10/17 05:06:08;;;;;;;79.90;50.17;;;13.50;99.90;;;;;;2105602;28;20020;-72
2022/10/17 05:07:11;;;;;;;83.18;50.45;;;13.40;99.90;;;;;;2105452;28;20032;-72
2022/10/17 05:08:20;;;;;;;78.15;48.78;;;13.40;99.90;;;;;;2098337;28;20510;-72
2022/10/17 05:09:21;;;;;;;80.03;51.03;;;13.50;99.90;;;;;;2097136;28;20055;-72
2022/10/17 05:10:22;;;;;;;77.90;48.28;;;13.40;99.90;;;;;;2096843;28;20473;-72
2022/10/17 05:11:27;;;;;;;98.50;55.47;;;13.40;99.90;;;;;;2105734;28;20024;-71
2022/10/17 05:12:28;;;;;;;84.60;52.17;;;13.50;99.90;;;;;;2105606;28;20115;-72
2022/10/17 05:13:29;;;;;;;83.57;51.38;;;13.50;99.90;;;;;;2105541;28;20023;-71
2022/10/17 05:14:29;;;;;;;79.05;50.42;;;13.50;99.90;;;;;;2113692;28;20102;-72
2022/10/17 05:15:30;;;;;;;78.85;49.53;;;13.50;99.90;;;;;;2105550;28;20031;-70
2022/10/17 05:16:31;;;;;;;72.18;46.72;;;13.50;99.90;;;;;;2105523;28;20024;-71
2022/10/17 05:17:32;;;;;;;72.55;46.65;;;13.40;99.90;;;;;;2105359;28;20024;-72
2022/10/17 05:18:33;;;;;;;73.18;48.22;;;13.40;99.90;;;;;;2105703;28;20128;-71
2022/10/17 05:19:34;;;;;;;69.30;46.63;;;13.40;99.90;;;;;;2105365;28;20521;-71
2022/10/17 05:20:35;;;;;;;70.68;45.60;;;13.40;99.90;;;;;;2105163;28;20383;-72
2022/10/17 05:21:36;;;;;;;69.05;45.67;;;13.40;99.90;;;;;;2105197;28;20027;-72
2022/10/17 05:22:38;;;;;;;66.18;43.70;;;13.40;99.90;;;;;;2097201;28;20536;-73
2022/10/17 05:23:39;;;;;;;62.95;42.67;;;13.40;99.90;;;;;;2097091;28;20124;-73
2022/10/17 05:24:41;;;;;;;62.15;42.40;;;13.40;99.90;;;;;;2097003;28;20115;-73
2022/10/17 05:25:43;;;;;;;73.95;47.35;;;13.40;99.90;;;;;;2097220;28;20032;-71
2022/10/17 05:26:43;;;;;;;72.28;46.65;;;13.40;99.90;;;;;;2107865;28;20040;-71
2022/10/17 05:27:44;;;;;;;65.78;44.22;;;13.40;99.90;;;;;;2110858;28;20031;-73
2022/10/17 05:28:45;;;;;;;78.93;48.45;;;13.30;99.90;;;;;;2097717;28;20616;-72
2022/10/17 05:29:48;;;;;;;72.65;46.72;;;13.30;99.90;;;;;;2097567;28;20051;-72
2022/10/17 05:31:04;;;;;;;69.20;44.38;;;13.40;99.90;;;;;;2107373;28;20032;-73
2022/10/17 05:32:05;;;;;;;69.07;45.72;;;13.30;99.90;;;;;;2107159;28;20119;-73
2022/10/17 05:33:08;;;;;;;70.20;45.05;;;13.30;99.90;;;;;;2108792;28;20059;-73
2022/10/17 05:34:08;;;;;;;78.57;49.50;;;13.30;99.90;;;;;;2104309;28;20031;-73
2022/10/17 05:35:09;;;;;;;79.22;49.13;;;13.40;99.90;;;;;;2097291;28;20425;-70
2022/10/17 05:36:11;;;;;;;80.78;49.90;;;13.40;99.90;;;;;;2090333;28;20129;-69
2022/10/17 05:37:13;;;;;;;78.40;51.25;;;13.40;99.90;;;;;;2097359;28;20121;-73